createdAt,value
2023-11-11T00:00:02.514Z,37.00
2023-11-11T00:02:31.578Z,34.03
2023-11-11T00:04:59.045Z,33.92
2023-11-11T00:07:26.396Z,32.42
2023-11-11T00:09:54.939Z,33.10
2023-11-11T00:12:22.861Z,38.33
2023-11-11T00:14:51.910Z,30.80
2023-11-11T00:17:18.986Z,27.25
2023-11-11T00:19:46.258Z,32.00
2023-11-11T00:22:13.988Z,28.63
2023-11-11T00:24:41.079Z,30.02
2023-11-11T00:27:08.111Z,28.40
2023-11-11T00:29:35.859Z,28.17
2023-11-11T00:32:04.173Z,29.75
2023-11-11T00:34:31.399Z,27.58
2023-11-11T00:36:59.128Z,27.20
2023-11-11T00:39:27.176Z,28.63
2023-11-11T00:41:54.169Z,28.63
2023-11-11T00:44:22.499Z,28.17
2023-11-11T00:46:49.525Z,29.23
2023-11-11T00:49:16.597Z,33.00
2023-11-11T00:51:43.971Z,31.42
2023-11-11T00:54:11.662Z,26.25
2023-11-11T00:56:39.898Z,26.55
2023-11-11T00:59:07.292Z,25.13
2023-11-11T01:01:36.055Z,27.75
2023-11-11T01:04:05.952Z,23.70
2023-11-11T01:06:34.619Z,21.13
2023-11-11T01:09:02.176Z,19.63
2023-11-11T01:11:30.320Z,20.40
2023-11-11T01:13:57.364Z,20.45
2023-11-11T01:16:24.467Z,19.85
2023-11-11T01:18:52.253Z,16.63
2023-11-11T01:21:19.433Z,19.92
2023-11-11T01:23:46.723Z,18.33
2023-11-11T01:26:13.897Z,18.60
2023-11-11T01:28:41.324Z,18.52
2023-11-11T01:31:08.885Z,16.45
2023-11-11T01:33:36.092Z,20.88
2023-11-11T01:36:05.867Z,21.33
2023-11-11T01:38:33.241Z,21.70
2023-11-11T01:41:00.406Z,18.52
2023-11-11T01:43:27.383Z,19.20
2023-11-11T01:45:56.816Z,19.15
2023-11-11T01:48:24.185Z,14.60
2023-11-11T01:50:51.597Z,16.50
2023-11-11T01:53:19.192Z,16.25
2023-11-11T01:55:47.591Z,16.40
2023-11-11T01:58:18.367Z,13.35
2023-11-11T02:00:46.179Z,14.13
2023-11-11T02:03:15.286Z,14.50
2023-11-11T02:05:44.085Z,13.75
2023-11-11T02:08:11.880Z,11.65
2023-11-11T02:10:39.825Z,11.50
2023-11-11T02:13:07.603Z,13.70
2023-11-11T02:15:36.628Z,10.45
2023-11-11T02:18:06.984Z,9.68
2023-11-11T02:20:34.949Z,8.40
2023-11-11T02:23:03.663Z,5.60
2023-11-11T02:25:31.464Z,7.80
2023-11-11T02:27:59.254Z,6.97
2023-11-11T02:30:27.634Z,8.68
2023-11-11T02:32:54.824Z,8.43
2023-11-11T02:35:21.861Z,9.18
2023-11-11T02:37:48.811Z,9.02
2023-11-11T02:40:16.981Z,8.68
2023-11-11T02:42:44.539Z,7.97
2023-11-11T02:45:12.873Z,7.55
2023-11-11T02:47:40.127Z,8.63
2023-11-11T02:50:08.111Z,9.35
2023-11-11T02:52:35.793Z,12.20
2023-11-11T02:55:02.835Z,10.35
2023-11-11T02:57:29.974Z,10.48
2023-11-11T02:59:57.148Z,11.00
2023-11-11T03:02:25.868Z,11.27
2023-11-11T03:04:53.759Z,10.98
2023-11-11T03:07:20.773Z,11.18
2023-11-11T03:09:47.788Z,13.25
2023-11-11T03:12:14.979Z,13.60
2023-11-11T03:14:42.163Z,13.32
2023-11-11T03:17:09.910Z,12.18
2023-11-11T03:19:37.146Z,12.18
2023-11-11T03:22:05.188Z,11.75
2023-11-11T03:24:32.518Z,15.60
2023-11-11T03:26:59.531Z,11.07
2023-11-11T03:29:26.921Z,10.23
2023-11-11T03:31:54.184Z,9.07
2023-11-11T03:34:21.306Z,9.35
2023-11-11T03:36:48.499Z,9.70
2023-11-11T03:39:15.639Z,5.35
2023-11-11T03:41:42.678Z,7.18
2023-11-11T03:44:12.517Z,5.55
2023-11-11T03:46:39.740Z,7.18
2023-11-11T03:49:07.067Z,7.13
2023-11-11T03:51:34.228Z,8.18
2023-11-11T03:54:01.426Z,7.93
2023-11-11T03:56:28.571Z,7.13
2023-11-11T03:58:55.565Z,9.90
2023-11-11T04:01:22.700Z,5.32
2023-11-11T04:03:49.993Z,4.57
2023-11-11T04:06:17.306Z,6.93
2023-11-11T04:08:44.657Z,7.07
2023-11-11T04:11:11.689Z,7.35
2023-11-11T04:13:40.674Z,7.68
2023-11-11T04:16:11.466Z,5.25
2023-11-11T04:18:39.306Z,5.37
2023-11-11T04:21:06.804Z,5.75
2023-11-11T04:23:34.213Z,6.20
2023-11-11T04:26:02.360Z,4.85
2023-11-11T04:28:30.001Z,5.10
2023-11-11T04:30:56.954Z,3.85
2023-11-11T04:33:24.242Z,4.47
2023-11-11T04:35:54.094Z,4.57
2023-11-11T04:38:26.719Z,6.05
2023-11-11T04:40:56.513Z,5.20
2023-11-11T04:43:23.561Z,6.18
2023-11-11T04:45:50.701Z,4.93
2023-11-11T04:48:17.766Z,4.00
2023-11-11T04:50:44.849Z,3.00
2023-11-11T04:53:11.798Z,4.60
2023-11-11T04:55:38.751Z,3.78
2023-11-11T04:58:05.737Z,3.42
2023-11-11T05:00:32.943Z,3.17
2023-11-11T05:03:02.081Z,5.50
2023-11-11T05:05:29.693Z,5.47
2023-11-11T05:07:56.794Z,5.30
2023-11-11T05:10:23.865Z,7.57
2023-11-11T05:12:52.809Z,6.30
2023-11-11T05:15:25.124Z,5.95
2023-11-11T05:17:52.452Z,3.17
2023-11-11T05:20:19.428Z,3.78
2023-11-11T05:22:46.526Z,4.32
2023-11-11T05:25:13.872Z,3.40
2023-11-11T05:27:41.402Z,6.20
2023-11-11T05:30:09.928Z,8.35
2023-11-11T05:32:37.315Z,4.90
2023-11-11T05:35:07.113Z,7.05
2023-11-11T05:37:34.374Z,3.83
2023-11-11T05:40:01.397Z,3.38
2023-11-11T05:42:28.442Z,6.18
2023-11-11T05:44:55.607Z,4.18
2023-11-11T05:47:22.658Z,3.88
2023-11-11T05:49:50.501Z,6.47
2023-11-11T05:52:17.610Z,4.75
2023-11-11T05:54:45.360Z,4.68
2023-11-11T05:57:12.598Z,4.45
2023-11-11T05:59:40.543Z,2.72
2023-11-11T06:02:07.558Z,6.05
2023-11-11T06:04:35.804Z,5.10
2023-11-11T06:07:02.946Z,8.15
2023-11-11T06:09:32.093Z,9.27
2023-11-11T06:11:59.545Z,6.00
2023-11-11T06:14:28.311Z,6.85
2023-11-11T06:16:55.442Z,5.13
2023-11-11T06:19:24.965Z,15.63
2023-11-11T06:21:52.155Z,6.63
2023-11-11T06:24:19.628Z,7.72
2023-11-11T06:26:46.802Z,7.85
2023-11-11T06:29:13.898Z,9.48
2023-11-11T06:31:40.950Z,8.52
2023-11-11T06:34:08.297Z,4.63
2023-11-11T06:36:35.920Z,5.45
2023-11-11T06:39:03.875Z,6.43
2023-11-11T06:41:30.883Z,6.82
2023-11-11T06:43:57.857Z,3.70
2023-11-11T06:46:24.906Z,4.63
2023-11-11T06:48:51.915Z,8.07
2023-11-11T06:51:19.073Z,6.97
2023-11-11T06:53:46.458Z,7.00
2023-11-11T06:56:17.181Z,8.07
2023-11-11T06:58:44.474Z,9.43
2023-11-11T07:01:13.930Z,10.18
2023-11-11T07:03:41.076Z,17.15
2023-11-11T07:06:09.165Z,8.38
2023-11-11T07:08:36.193Z,8.85
2023-11-11T07:11:16.580Z,9.15
2023-11-11T07:13:45.354Z,7.38
2023-11-11T07:16:14.749Z,7.35
2023-11-11T07:18:42.464Z,7.95
2023-11-11T07:21:18.973Z,6.82
2023-11-11T07:23:46.085Z,5.85
2023-11-11T07:26:13.280Z,6.78
2023-11-11T07:28:40.171Z,6.95
2023-11-11T07:31:08.978Z,8.38
2023-11-11T07:33:39.515Z,7.97
2023-11-11T07:36:07.881Z,8.10
2023-11-11T07:38:36.580Z,10.30
2023-11-11T07:41:04.023Z,26.88
2023-11-11T07:43:31.113Z,21.52
2023-11-11T07:45:58.194Z,48.10
2023-11-11T07:48:25.522Z,53.15
2023-11-11T07:50:52.647Z,36.05
2023-11-11T07:53:20.909Z,55.35
2023-11-11T07:55:48.039Z,42.40
2023-11-11T08:00:45.591Z,43.22
2023-11-11T08:03:12.579Z,50.10
2023-11-11T08:05:39.642Z,27.90
2023-11-11T08:08:14.555Z,22.52
2023-11-11T08:10:43.793Z,28.50
2023-11-11T08:13:12.131Z,26.33
2023-11-11T08:15:39.214Z,25.73
2023-11-11T08:18:06.635Z,21.75
2023-11-11T08:20:33.862Z,57.30
2023-11-11T08:23:01.184Z,32.13
2023-11-11T08:25:28.244Z,39.05
2023-11-11T08:27:56.738Z,28.08
2023-11-11T08:30:23.750Z,28.83
2023-11-11T08:32:50.893Z,46.58
2023-11-11T08:35:18.284Z,33.08
2023-11-11T08:37:46.271Z,26.25
2023-11-11T08:40:14.380Z,31.95
2023-11-11T08:42:42.024Z,30.30
2023-11-11T08:45:11.470Z,30.55
2023-11-11T08:47:40.336Z,25.45
2023-11-11T08:50:11.265Z,29.42
2023-11-11T08:52:43.093Z,27.17
2023-11-11T08:55:12.230Z,28.63
2023-11-11T08:57:40.122Z,27.85
2023-11-11T09:00:13.348Z,45.03
2023-11-11T09:02:40.950Z,25.95
2023-11-11T09:05:08.984Z,33.17
2023-11-11T09:07:36.476Z,23.05
2023-11-11T09:10:04.901Z,24.38
2023-11-11T09:12:33.617Z,23.52
2023-11-11T09:15:02.959Z,23.77
2023-11-11T09:17:37.078Z,28.52
2023-11-11T09:20:10.809Z,25.73
2023-11-11T09:22:39.801Z,24.23
2023-11-11T09:25:09.161Z,29.73
2023-11-11T09:27:37.146Z,26.38
2023-11-11T09:30:06.693Z,26.65
2023-11-11T09:32:34.977Z,29.13
2023-11-11T09:35:04.349Z,27.95
2023-11-11T09:37:35.470Z,28.42
2023-11-11T09:40:07.827Z,30.75
2023-11-11T09:42:35.257Z,26.85
2023-11-11T09:47:35.799Z,27.73
2023-11-11T09:50:09.347Z,27.40
2023-11-11T09:52:38.136Z,27.13
2023-11-11T09:55:09.890Z,26.13
2023-11-11T09:57:41.555Z,26.55
2023-11-11T10:02:42.257Z,26.38
2023-11-11T10:05:14.795Z,26.52
2023-11-11T10:07:44.088Z,30.23
2023-11-11T10:10:11.306Z,25.27
2023-11-11T10:12:41.449Z,30.33
2023-11-11T10:15:12.202Z,31.30
2023-11-11T10:17:40.821Z,29.55
2023-11-11T10:20:31.709Z,28.80
2023-11-11T10:23:01.680Z,30.02
2023-11-11T10:25:29.199Z,26.33
2023-11-11T10:27:57.027Z,34.83
2023-11-11T10:30:29.267Z,33.40
2023-11-11T10:32:59.673Z,38.85
2023-11-11T10:35:28.884Z,36.92
2023-11-11T10:37:56.622Z,38.70
2023-11-11T10:40:24.407Z,41.45
2023-11-11T10:42:52.336Z,40.50
2023-11-11T10:45:23.415Z,45.13
2023-11-11T10:47:50.554Z,41.63
2023-11-11T10:50:18.589Z,47.60
2023-11-11T10:52:45.730Z,48.22
2023-11-11T10:55:15.143Z,51.53
2023-11-11T10:57:48.372Z,47.17
2023-11-11T11:00:25.295Z,47.55
2023-11-11T11:02:57.643Z,52.28
2023-11-11T11:05:25.841Z,48.42
2023-11-11T11:08:07.423Z,51.28
2023-11-11T11:10:48.624Z,49.38
2023-11-11T11:13:19.871Z,50.30
2023-11-11T11:15:48.342Z,48.65
2023-11-11T11:18:23.918Z,48.45
2023-11-11T11:20:54.131Z,49.17
2023-11-11T11:23:23.695Z,47.38
2023-11-11T11:25:54.724Z,54.55
2023-11-11T11:28:24.074Z,49.15
2023-11-11T11:31:04.082Z,48.30
2023-11-11T11:33:37.465Z,44.80
2023-11-11T11:36:10.744Z,45.20
2023-11-11T11:38:40.152Z,42.13
2023-11-11T11:41:27.569Z,47.17
2023-11-11T11:43:56.968Z,43.83
2023-11-11T11:46:25.463Z,42.50
2023-11-11T11:48:53.384Z,42.72
2023-11-11T11:51:22.183Z,42.42
2023-11-11T11:53:51.145Z,46.92
2023-11-11T11:56:31.504Z,46.10
2023-11-11T11:59:02.669Z,48.63
2023-11-11T12:01:36.450Z,44.30
2023-11-11T12:04:05.164Z,44.55
2023-11-11T12:06:41.187Z,41.20
2023-11-11T12:09:13.325Z,43.00
2023-11-11T12:11:40.307Z,39.80
2023-11-11T12:14:10.275Z,39.13
2023-11-11T12:16:42.765Z,36.80
2023-11-11T12:19:09.854Z,40.90
2023-11-11T12:21:39.141Z,37.33
2023-11-11T12:24:06.641Z,37.28
2023-11-11T12:26:37.651Z,35.75
2023-11-11T12:29:05.652Z,40.05
2023-11-11T12:31:32.903Z,39.85
2023-11-11T12:33:59.970Z,43.28
2023-11-11T12:36:27.065Z,40.13
2023-11-11T12:39:15.168Z,40.28
2023-11-11T12:41:48.139Z,40.40
2023-11-11T12:44:16.116Z,40.33
2023-11-11T12:46:44.638Z,42.63
2023-11-11T12:49:19.335Z,41.20
2023-11-11T12:51:46.863Z,41.95
2023-11-11T12:54:15.476Z,41.13
2023-11-11T12:56:50.145Z,41.40
2023-11-11T12:59:17.401Z,40.33
2023-11-11T13:01:44.495Z,38.20
2023-11-11T13:04:16.517Z,42.00
2023-11-11T13:06:46.180Z,38.95
2023-11-11T13:09:20.650Z,40.25
2023-11-11T13:11:49.758Z,40.17
2023-11-11T13:14:21.843Z,40.13
2023-11-11T13:16:51.156Z,43.00
2023-11-11T13:19:19.422Z,41.47
2023-11-11T13:21:48.888Z,35.85
2023-11-11T13:24:16.370Z,39.90
2023-11-11T13:26:44.069Z,40.08
2023-11-11T13:29:11.051Z,40.35
2023-11-11T13:31:38.171Z,39.50
2023-11-11T13:34:12.157Z,36.08
2023-11-11T13:36:41.525Z,38.65
2023-11-11T13:39:21.252Z,37.22
2023-11-11T13:41:48.814Z,35.13
2023-11-11T13:44:16.202Z,32.92
2023-11-11T13:46:43.309Z,35.50
2023-11-11T13:49:10.469Z,37.03
2023-11-11T13:51:37.436Z,36.72
2023-11-11T13:54:05.025Z,36.17
2023-11-11T13:56:32.194Z,37.03
2023-11-11T13:59:02.038Z,36.03
2023-11-11T14:01:30.258Z,38.55
2023-11-11T14:03:58.026Z,36.45
2023-11-11T14:06:26.315Z,33.75
2023-11-11T14:08:59.112Z,34.42
2023-11-11T14:11:28.676Z,30.92
2023-11-11T14:13:56.098Z,32.63
2023-11-11T14:16:25.143Z,34.75
2023-11-11T14:18:52.458Z,32.80
2023-11-11T14:21:19.828Z,30.00
2023-11-11T14:23:46.921Z,36.05
2023-11-11T14:26:14.536Z,33.72
2023-11-11T14:28:41.682Z,32.80
2023-11-11T14:31:08.716Z,33.92
2023-11-11T14:33:36.084Z,35.47
2023-11-11T14:36:03.320Z,34.42
2023-11-11T14:38:30.262Z,31.38
2023-11-11T14:40:58.058Z,32.38
2023-11-11T14:43:25.635Z,31.35
2023-11-11T14:45:52.647Z,33.80
2023-11-11T14:48:21.839Z,32.10
2023-11-11T14:50:48.702Z,32.03
2023-11-11T14:53:16.173Z,31.20
2023-11-11T14:55:43.392Z,35.50
2023-11-11T14:58:10.422Z,37.25
2023-11-11T15:00:38.794Z,34.75
2023-11-11T15:03:06.148Z,36.13
2023-11-11T15:05:33.280Z,29.95
2023-11-11T15:08:00.462Z,37.05
2023-11-11T15:10:29.746Z,36.30
2023-11-11T15:13:03.280Z,39.88
2023-11-11T15:15:34.741Z,36.95
2023-11-11T15:18:01.792Z,38.13
2023-11-11T15:20:28.828Z,39.05
2023-11-11T15:23:04.287Z,39.80
2023-11-11T15:25:32.187Z,38.45
2023-11-11T15:28:03.836Z,39.17
2023-11-11T15:30:31.588Z,36.20
2023-11-11T15:33:01.011Z,38.22
2023-11-11T15:35:29.556Z,40.85
2023-11-11T15:37:58.399Z,40.88
2023-11-11T15:40:25.336Z,38.08
2023-11-11T15:42:52.467Z,40.40
2023-11-11T15:45:21.460Z,42.25
2023-11-11T15:47:49.431Z,40.90
2023-11-11T15:50:16.619Z,42.67
2023-11-11T15:52:44.105Z,46.15
2023-11-11T15:55:16.159Z,46.47
2023-11-11T15:57:43.526Z,51.58
2023-11-11T16:00:11.944Z,49.00
2023-11-11T16:02:40.789Z,47.10
2023-11-11T16:05:10.634Z,51.33
2023-11-11T16:07:38.364Z,46.53
2023-11-11T16:10:09.350Z,50.53
2023-11-11T16:12:38.255Z,48.97
2023-11-11T16:15:06.921Z,46.55
2023-11-11T16:17:34.575Z,48.60
2023-11-11T16:20:02.486Z,46.47
2023-11-11T16:22:35.795Z,47.88
2023-11-11T16:25:02.808Z,42.13
2023-11-11T16:27:31.082Z,47.30
2023-11-11T16:29:59.492Z,47.22
2023-11-11T16:32:27.131Z,44.90
2023-11-11T16:34:54.217Z,44.10
2023-11-11T16:37:21.508Z,48.35
2023-11-11T16:39:51.483Z,42.58
2023-11-11T16:42:18.812Z,50.13
2023-11-11T16:44:48.331Z,47.83
2023-11-11T16:47:16.492Z,39.80
2023-11-11T16:49:45.201Z,39.58
2023-11-11T16:52:13.236Z,40.55
2023-11-11T16:54:40.500Z,43.65
2023-11-11T16:57:08.379Z,39.42
2023-11-11T16:59:36.107Z,45.83
2023-11-11T17:02:03.423Z,47.88
2023-11-11T17:04:33.674Z,47.72
2023-11-11T17:09:44.348Z,45.63
2023-11-11T17:12:14.903Z,40.63
2023-11-11T17:14:41.849Z,47.60
2023-11-11T17:17:09.309Z,45.78
2023-11-11T17:19:36.718Z,41.13
2023-11-11T17:22:06.684Z,40.63
2023-11-11T17:24:36.819Z,41.80
2023-11-11T17:27:07.167Z,40.83
2023-11-11T17:29:34.210Z,40.03
2023-11-11T17:32:01.189Z,40.97
2023-11-11T17:34:28.257Z,40.35
2023-11-11T17:36:55.563Z,41.35
2023-11-11T17:39:23.258Z,42.67
2023-11-11T17:41:50.192Z,46.88
2023-11-11T17:44:18.634Z,42.22
2023-11-11T17:46:46.497Z,38.33
2023-11-11T17:49:14.393Z,46.08
2023-11-11T17:51:41.492Z,41.35
2023-11-11T17:54:08.431Z,41.33
2023-11-11T17:56:35.649Z,39.65
2023-11-11T17:59:04.548Z,39.70
2023-11-11T18:01:38.965Z,41.78
2023-11-11T18:04:07.773Z,44.10
2023-11-11T18:06:53.859Z,47.15
2023-11-11T18:09:20.865Z,31.65
2023-11-11T18:11:48.831Z,33.72
2023-11-11T18:14:17.287Z,35.10
2023-11-11T18:16:44.716Z,36.53
2023-11-11T18:19:11.915Z,35.63
2023-11-11T18:21:39.122Z,36.72
2023-11-11T18:24:07.910Z,41.97
2023-11-11T18:26:35.094Z,44.67
2023-11-11T18:29:02.181Z,37.38
2023-11-11T18:31:29.242Z,41.45
2023-11-11T18:33:57.243Z,44.55
2023-11-11T18:36:26.139Z,46.42
2023-11-11T18:38:54.163Z,40.45
2023-11-11T18:41:22.604Z,37.10
2023-11-11T18:43:50.054Z,37.42
2023-11-11T18:46:17.384Z,36.78
2023-11-11T18:48:44.566Z,38.78
2023-11-11T18:51:11.780Z,34.25
2023-11-11T18:53:39.032Z,29.60
2023-11-11T18:56:09.055Z,26.63
2023-11-11T18:58:36.138Z,29.67
2023-11-11T19:01:03.354Z,26.15
2023-11-11T19:03:30.717Z,26.15
2023-11-11T19:05:57.914Z,24.13
2023-11-11T19:08:24.959Z,24.40
2023-11-11T19:10:52.107Z,30.35
2023-11-11T19:13:19.602Z,22.60
2023-11-11T19:15:46.559Z,20.15
2023-11-11T19:18:13.903Z,24.95
2023-11-11T19:20:41.864Z,23.45
2023-11-11T19:23:09.317Z,21.40
2023-11-11T19:25:36.950Z,21.70
2023-11-11T19:28:05.061Z,20.48
2023-11-11T19:30:32.647Z,21.48
2023-11-11T19:32:59.758Z,20.17
2023-11-11T19:35:27.621Z,24.08
2023-11-11T19:37:55.422Z,23.35
2023-11-11T19:40:22.600Z,24.17
2023-11-11T19:42:49.671Z,20.40
2023-11-11T19:45:17.087Z,21.75
2023-11-11T19:47:44.680Z,23.45
2023-11-11T19:50:13.795Z,21.85
2023-11-11T19:52:41.113Z,24.73
2023-11-11T19:55:08.937Z,28.15
2023-11-11T19:57:43.800Z,25.23
2023-11-11T20:00:14.927Z,29.42
2023-11-11T20:02:42.891Z,25.40
2023-11-11T20:05:10.522Z,27.05
2023-11-11T20:07:37.891Z,29.67
2023-11-11T20:10:05.748Z,27.92
2023-11-11T20:12:33.024Z,23.35
2023-11-11T20:15:04.121Z,23.27
2023-11-11T20:17:31.813Z,30.50
2023-11-11T20:19:59.065Z,24.25
2023-11-11T20:22:26.061Z,25.55
2023-11-11T20:24:54.799Z,21.08
2023-11-11T20:27:23.197Z,22.63
2023-11-11T20:29:52.113Z,19.00
2023-11-11T20:32:19.228Z,22.58
2023-11-11T20:34:46.734Z,21.63
2023-11-11T20:37:13.796Z,20.83
2023-11-11T20:39:41.228Z,19.58
2023-11-11T20:42:11.273Z,20.38
2023-11-11T20:44:39.659Z,19.95
2023-11-11T20:47:06.734Z,24.20
2023-11-11T20:49:39.627Z,21.38
2023-11-11T20:52:06.799Z,21.15
2023-11-11T20:54:37.909Z,21.15
2023-11-11T20:57:08.297Z,15.25
2023-11-11T20:59:35.411Z,19.98
2023-11-11T21:02:02.622Z,21.70
2023-11-11T21:04:30.514Z,19.58
2023-11-11T21:07:00.430Z,22.15
2023-11-11T21:09:29.461Z,19.67
2023-11-11T21:11:56.388Z,23.13
2023-11-11T21:14:25.585Z,19.70
2023-11-11T21:16:52.688Z,22.25
2023-11-11T21:19:24.479Z,24.58
2023-11-11T21:21:51.790Z,21.42
2023-11-11T21:24:19.559Z,23.27
2023-11-11T21:26:50.983Z,20.33
2023-11-11T21:29:21.004Z,20.55
2023-11-11T21:31:48.144Z,21.20
2023-11-11T21:34:15.220Z,24.27
2023-11-11T21:36:44.732Z,24.20
2023-11-11T21:39:14.142Z,24.83
2023-11-11T21:41:41.217Z,20.80
2023-11-11T21:44:09.818Z,20.38
2023-11-11T21:46:39.830Z,21.73
2023-11-11T21:49:08.709Z,24.05
2023-11-11T21:51:35.703Z,20.85
2023-11-11T21:54:02.708Z,21.38
2023-11-11T21:56:32.775Z,24.65
2023-11-11T21:59:01.725Z,20.67
2023-11-11T22:01:28.812Z,20.92
2023-11-11T22:03:57.274Z,22.52
2023-11-11T22:06:26.253Z,25.35
2023-11-11T22:08:53.342Z,25.45
2023-11-11T22:11:23.561Z,24.83
2023-11-11T22:13:50.488Z,21.23
2023-11-11T22:16:20.693Z,23.60
2023-11-11T22:18:47.762Z,21.30
2023-11-11T22:21:14.884Z,22.42
2023-11-11T22:23:44.923Z,23.55
2023-11-11T22:26:19.308Z,21.50
2023-11-11T22:28:46.996Z,26.55
2023-11-11T22:31:14.788Z,22.15
2023-11-11T22:33:41.986Z,22.20
2023-11-11T22:36:11.086Z,23.38
2023-11-11T22:38:38.709Z,21.27
2023-11-11T22:41:09.151Z,21.88
2023-11-11T22:43:36.358Z,20.15
2023-11-11T22:46:04.295Z,22.52
2023-11-11T22:48:31.310Z,26.77
2023-11-11T22:50:59.569Z,30.30
2023-11-11T22:53:27.237Z,27.80
2023-11-11T22:55:54.173Z,29.42
2023-11-11T22:58:21.135Z,30.30
2023-11-11T23:00:49.761Z,32.58
2023-11-11T23:03:17.485Z,30.80
2023-11-11T23:05:47.576Z,27.05
2023-11-11T23:08:15.572Z,29.05
2023-11-11T23:10:45.314Z,31.85
2023-11-11T23:13:13.530Z,29.52
2023-11-11T23:15:41.030Z,29.42
2023-11-11T23:18:11.410Z,29.23
2023-11-11T23:20:41.867Z,30.50
2023-11-11T23:23:10.494Z,32.00
2023-11-11T23:25:41.124Z,30.33
2023-11-11T23:28:09.545Z,32.03
2023-11-11T23:30:37.441Z,32.05
2023-11-11T23:33:05.476Z,30.02
2023-11-11T23:35:32.715Z,30.55
2023-11-11T23:37:59.782Z,33.05
2023-11-11T23:40:27.620Z,36.72
2023-11-11T23:42:54.603Z,32.85
2023-11-11T23:45:24.788Z,30.73
2023-11-11T23:47:51.960Z,32.17
2023-11-11T23:50:20.412Z,30.35
2023-11-11T23:52:47.845Z,30.25
2023-11-11T23:55:15.841Z,31.23
2023-11-11T23:57:42.906Z,29.25
